Terminal Aerodrome Forecast
Issued by NWS

Home | Current Version | Previous Version | Text Only | Print | Product List | Glossary On
Versions: 1 2 3 4 5 6 7 8 9 10 11 12 13 14 15 16 17 18 19
000
FTUS46 KEKA 212329
TAFCEC
TAF
KCEC 212329Z 2200/2224 24007KT 2SM -RA BR OVC003
      TEMPO 2200/2204 1SM -RA BR
     FM220400 19006KT 4SM -RA BR OVC004
     FM220700 21004KT 4SM -RA BKN004 OVC007
     FM221800 33004KT 5SM BR OVC007=

USA.gov is the U.S. government's official web portal to all federal, state and local government web resources and services.